createdAt,value
2018-12-24T00:19:45.562Z,97300.94
2018-12-24T00:22:17.278Z,97303.69
2018-12-24T00:24:49.276Z,97316.70
2018-12-24T00:27:19.983Z,97318.50
2018-12-24T00:29:52.108Z,97308.11
2018-12-24T00:32:22.849Z,97307.51
2018-12-24T00:34:55.272Z,97305.97
2018-12-24T00:37:25.810Z,97323.66
2018-12-24T00:39:57.914Z,97326.23
2018-12-24T00:42:30.281Z,97319.97
2018-12-24T00:45:02.314Z,97320.09
2018-12-24T00:47:34.414Z,97316.89
2018-12-24T00:50:06.669Z,97330.45
2018-12-24T00:52:38.746Z,97330.45
2018-12-24T00:55:11.120Z,97327.83
2018-12-24T00:57:41.851Z,97321.23
2018-12-24T01:00:14.125Z,97321.23
2018-12-24T01:02:46.325Z,97333.03
2018-12-24T01:05:17.002Z,97337.59
2018-12-24T01:07:49.275Z,97329.30
2018-12-24T01:10:20.118Z,97336.98
2018-12-24T01:12:51.050Z,97357.11
2018-12-24T01:15:23.292Z,97346.27
2018-12-24T01:17:55.533Z,97323.23
2018-12-24T01:20:27.889Z,97323.23
2018-12-24T01:23:00.318Z,97322.48
2018-12-24T01:25:32.598Z,97334.09
2018-12-24T01:28:04.761Z,97334.09
2018-12-24T01:30:37.273Z,97339.73
2018-12-24T01:33:08.259Z,97338.80
2018-12-24T01:35:39.009Z,97331.61
2018-12-24T01:38:11.293Z,97348.86
2018-12-24T01:40:43.593Z,97356.05
2018-12-24T01:43:15.891Z,97357.25
2018-12-24T01:45:48.270Z,97359.82
2018-12-24T01:48:19.100Z,97364.04
2018-12-24T01:50:51.281Z,97366.16
2018-12-24T01:53:22.032Z,97364.02
2018-12-24T01:55:54.273Z,97377.99
2018-12-24T01:58:26.268Z,97378.95
2018-12-24T02:00:57.279Z,97381.83
2018-12-24T02:03:28.024Z,97380.91
2018-12-24T02:06:00.283Z,97377.81
2018-12-24T02:08:32.373Z,97371.82
2018-12-24T02:11:04.713Z,97380.06
2018-12-24T02:13:37.134Z,97379.44
2018-12-24T02:16:08.276Z,97387.84
2018-12-24T02:18:39.276Z,97383.22
2018-12-24T02:21:10.028Z,97377.89
2018-12-24T02:23:42.398Z,97374.05
2018-12-24T02:26:15.273Z,97377.62
2018-12-24T02:28:46.051Z,97377.62
2018-12-24T02:31:16.814Z,97375.15
2018-12-24T02:33:49.275Z,97370.13
2018-12-24T02:36:20.054Z,97375.06
2018-12-24T02:38:52.413Z,97379.22
2018-12-24T02:41:24.758Z,97392.63
2018-12-24T02:43:57.295Z,97392.63
2018-12-24T02:46:29.389Z,97399.22
2018-12-24T02:49:01.687Z,97406.71
2018-12-24T02:51:34.290Z,97406.71
2018-12-24T02:54:06.429Z,97414.05
2018-12-24T02:56:38.717Z,97416.80
2018-12-24T02:59:10.980Z,97416.80
2018-12-24T03:01:43.143Z,97432.51
2018-12-24T03:04:13.947Z,97445.30
2018-12-24T03:06:46.306Z,97440.42
2018-12-24T03:09:18.653Z,97423.94
2018-12-24T03:11:50.971Z,97423.94
2018-12-24T03:14:23.291Z,97418.61
2018-12-24T03:16:54.293Z,97427.31
2018-12-24T03:19:25.310Z,97425.17
2018-12-24T03:21:57.490Z,97437.26
2018-12-24T03:24:29.956Z,97422.59
2018-12-24T03:27:02.297Z,97422.59
2018-12-24T03:29:34.307Z,97427.20
2018-12-24T03:32:05.248Z,97435.30
2018-12-24T03:34:36.291Z,97439.67
2018-12-24T03:37:08.305Z,97426.05
2018-12-24T03:39:39.021Z,97439.13
2018-12-24T03:42:11.326Z,97439.31
2018-12-24T03:44:42.018Z,97439.67
2018-12-24T03:47:14.654Z,97446.23
2018-12-24T03:49:47.139Z,97459.48
2018-12-24T03:52:18.298Z,97459.48
2018-12-24T03:54:49.055Z,97455.69
2018-12-24T03:57:21.329Z,97463.33
2018-12-24T03:59:53.315Z,97473.21
2018-12-24T04:02:24.294Z,97474.28
2018-12-24T04:04:57.789Z,97481.15
2018-12-24T04:07:29.953Z,97477.77
2018-12-24T04:10:02.293Z,97486.02
2018-12-24T04:12:34.410Z,97483.77
2018-12-24T04:17:49.435Z,97492.14
2018-12-24T04:20:21.389Z,97493.18
2018-12-24T04:22:53.677Z,97502.02
2018-12-24T04:25:26.280Z,97502.02
2018-12-24T04:27:57.119Z,97507.34
2018-12-24T04:30:27.903Z,97521.52
2018-12-24T04:33:00.308Z,97521.52
2018-12-24T04:35:32.306Z,97520.75
2018-12-24T04:38:03.132Z,97530.49
2018-12-24T04:40:34.261Z,97540.23
2018-12-24T04:43:05.109Z,97544.06
2018-12-24T04:45:37.347Z,97547.10
2018-12-24T04:48:08.287Z,97558.02
2018-12-24T04:50:38.726Z,97563.03
2018-12-24T04:53:11.287Z,97568.56
2018-12-24T04:55:41.993Z,97580.48
2018-12-24T04:58:14.289Z,97590.21
2018-12-24T05:00:46.428Z,97604.11
2018-12-24T05:03:18.873Z,97608.22
2018-12-24T05:05:51.302Z,97620.67
2018-12-24T05:08:23.662Z,97636.33
2018-12-24T05:10:55.896Z,97636.50
2018-12-24T05:13:28.278Z,97647.64
2018-12-24T05:16:00.709Z,97653.44
2018-12-24T05:18:33.317Z,97658.67
2018-12-24T05:21:05.633Z,97673.72
2018-12-24T05:23:37.888Z,97675.09
2018-12-24T05:26:10.293Z,97685.77
2018-12-24T05:28:42.597Z,97693.75
2018-12-24T05:31:14.968Z,97702.64
2018-12-24T05:33:47.287Z,97706.45
2018-12-24T05:36:19.304Z,97714.99
2018-12-24T05:38:50.287Z,97725.28
2018-12-24T05:41:21.122Z,97736.34
2018-12-24T05:43:51.911Z,97745.19
2018-12-24T05:46:24.286Z,97756.94
2018-12-24T05:48:55.054Z,97760.88
2018-12-24T05:54:14.277Z,97772.38
2018-12-24T05:56:46.290Z,97788.50
2018-12-24T05:59:17.115Z,97802.63
2018-12-24T06:01:49.339Z,97818.88
2018-12-24T06:04:22.264Z,97844.48
2018-12-24T06:06:53.279Z,97844.48
2018-12-24T06:09:24.286Z,97859.75
2018-12-24T06:11:56.180Z,97877.55
2018-12-24T06:14:27.157Z,97893.58
2018-12-24T06:16:58.078Z,97911.33
2018-12-24T06:19:30.307Z,97923.26
2018-12-24T06:22:02.397Z,97932.89
2018-12-24T06:24:34.783Z,97959.98
2018-12-24T06:27:07.285Z,97959.98
2018-12-24T06:29:38.120Z,97986.67
2018-12-24T06:32:08.848Z,98005.22
2018-12-24T06:34:41.296Z,98014.70
2018-12-24T06:37:12.287Z,98025.19
2018-12-24T06:39:43.119Z,98045.00
2018-12-24T06:42:13.870Z,98045.00
2018-12-24T06:44:46.287Z,98055.72
2018-12-24T06:49:28.360Z,98075.73
2018-12-24T06:52:00.603Z,98079.91
2018-12-24T06:54:32.930Z,98086.36
2018-12-24T06:57:05.283Z,98095.96
2018-12-24T06:59:37.358Z,98102.41
2018-12-24T07:02:08.281Z,98115.86
2018-12-24T07:04:40.461Z,98132.59
2018-12-24T07:07:12.743Z,98138.59
2018-12-24T07:09:45.137Z,98138.59
2018-12-24T07:12:17.466Z,98151.98
2018-12-24T07:14:49.758Z,98165.98
2018-12-24T07:17:22.291Z,98165.98
2018-12-24T07:19:53.105Z,98168.80
2018-12-24T07:22:25.599Z,98176.80
2018-12-24T07:24:57.945Z,98188.38
2018-12-24T07:27:32.292Z,98196.11
2018-12-24T07:30:03.144Z,98202.79
2018-12-24T07:32:35.664Z,98209.83
2018-12-24T07:35:08.388Z,98216.07
2018-12-24T07:37:40.355Z,98226.45
2018-12-24T07:40:11.036Z,98226.45
2018-12-24T07:42:43.123Z,98232.87
2018-12-24T07:45:13.865Z,98241.20
2018-12-24T07:47:45.950Z,98238.72
2018-12-24T07:50:17.950Z,98251.06
2018-12-24T07:52:50.126Z,98260.50
2018-12-24T07:55:22.298Z,98265.58
2018-12-24T07:57:53.020Z,98275.36
2018-12-24T08:00:25.296Z,98285.34
2018-12-24T08:02:57.294Z,98289.15
2018-12-24T08:05:29.299Z,98298.61
2018-12-24T08:08:00.285Z,98317.73
2018-12-24T08:10:32.288Z,98317.73
2018-12-24T08:13:03.175Z,98324.92
2018-12-24T08:15:34.285Z,98327.25
2018-12-24T08:18:05.036Z,98331.27
2018-12-24T08:20:37.298Z,98339.70
2018-12-24T08:23:08.021Z,98341.67
2018-12-24T08:25:40.262Z,98351.31
2018-12-24T08:28:11.041Z,98357.34
2018-12-24T08:30:43.295Z,98363.17
2018-12-24T08:33:15.328Z,98371.95
2018-12-24T08:35:47.317Z,98373.48
2018-12-24T08:38:19.400Z,98375.16
2018-12-24T08:40:51.666Z,98380.57
2018-12-24T08:43:23.766Z,98380.57
2018-12-24T08:46:04.290Z,98408.40
2018-12-24T08:48:58.298Z,98402.18
2018-12-24T08:51:48.000Z,98422.73
2018-12-24T08:54:34.380Z,98427.44
2018-12-24T08:57:22.219Z,98427.44
2018-12-24T09:00:09.979Z,98432.21
2018-12-24T09:03:04.137Z,98438.01
2018-12-24T09:05:43.093Z,98438.01
2018-12-24T09:08:32.768Z,98438.66
2018-12-24T09:11:09.466Z,98441.41
2018-12-24T09:13:59.153Z,98445.53
2018-12-24T09:16:43.424Z,98445.53
2018-12-24T09:19:24.629Z,98458.77
2018-12-24T09:21:58.546Z,98458.77
2018-12-24T09:24:31.170Z,98459.84
2018-12-24T09:27:16.298Z,98457.46
2018-12-24T09:30:15.590Z,98461.06
2018-12-24T09:32:50.944Z,98466.19
2018-12-24T09:35:30.228Z,98475.61
2018-12-24T09:38:08.189Z,98483.73
2018-12-24T09:40:43.467Z,98494.63
2018-12-24T09:43:15.882Z,98505.34
2018-12-24T09:45:50.324Z,98505.34
2018-12-24T09:48:24.118Z,98509.13
2018-12-24T09:50:57.651Z,98510.72
2018-12-24T09:53:29.941Z,98504.03
2018-12-24T09:56:06.738Z,98509.13
2018-12-24T09:58:54.213Z,98515.98
2018-12-24T10:01:30.975Z,98520.64
2018-12-24T10:04:23.311Z,98520.64
2018-12-24T10:06:59.349Z,98518.76
2018-12-24T10:09:33.413Z,98528.48
2018-12-24T10:12:05.990Z,98527.70
2018-12-24T10:14:40.174Z,98527.70
2018-12-24T10:17:16.310Z,98531.59
2018-12-24T10:19:50.339Z,98545.13
2018-12-24T10:22:31.353Z,98556.00
2018-12-24T10:25:10.006Z,98556.00
2018-12-24T10:27:48.880Z,98554.27
2018-12-24T10:30:19.419Z,98560.05
2018-12-24T10:32:59.407Z,98567.09
2018-12-24T10:35:41.369Z,98567.09
2018-12-24T10:38:16.454Z,98574.18
2018-12-24T10:41:19.959Z,98583.63
2018-12-24T10:43:57.941Z,98576.68
2018-12-24T10:46:33.489Z,98583.37
2018-12-24T10:49:16.970Z,98589.14
2018-12-24T10:51:56.388Z,98591.61
2018-12-24T10:54:39.744Z,98593.41
2018-12-24T10:57:25.464Z,98595.84
2018-12-24T11:00:04.978Z,98597.94
2018-12-24T11:02:42.622Z,98597.94
2018-12-24T11:05:17.400Z,98601.18
2018-12-24T11:08:04.119Z,98607.08
2018-12-24T11:10:54.822Z,98607.08
2018-12-24T11:13:48.065Z,98614.41
2018-12-24T11:16:22.340Z,98614.37
2018-12-24T11:19:00.388Z,98608.33
2018-12-24T11:21:32.759Z,98607.39
2018-12-24T11:24:10.346Z,98619.52
2018-12-24T11:26:50.504Z,98620.20
2018-12-24T11:29:26.343Z,98623.80
2018-12-24T11:32:09.814Z,98630.91
2018-12-24T11:34:41.948Z,98630.63
2018-12-24T11:37:17.283Z,98635.66
2018-12-24T11:39:49.375Z,98635.66
2018-12-24T11:42:22.551Z,98629.66
2018-12-24T11:44:54.693Z,98629.66
2018-12-24T11:47:28.324Z,98639.16
2018-12-24T11:50:02.637Z,98650.53
2018-12-24T11:52:35.277Z,98656.20
2018-12-24T11:55:10.436Z,98663.05
2018-12-24T11:57:56.963Z,98661.70
2018-12-24T12:00:33.330Z,98661.70
2018-12-24T12:03:12.797Z,98664.75
2018-12-24T12:05:45.269Z,98664.75
2018-12-24T12:08:18.102Z,98670.45
2018-12-24T12:10:51.068Z,98672.98
2018-12-24T12:13:23.161Z,98680.41
2018-12-24T12:16:02.463Z,98683.16
2018-12-24T12:18:29.275Z,98689.05
2018-12-24T12:21:07.293Z,98684.79
2018-12-24T12:23:43.284Z,98696.33
2018-12-24T12:26:23.230Z,98695.69
2018-12-24T12:28:57.523Z,98695.69
2018-12-24T12:31:38.073Z,98695.55
2018-12-24T12:34:18.437Z,98697.86
2018-12-24T12:37:06.676Z,98717.23
2018-12-24T12:39:54.985Z,98717.23
2018-12-24T12:42:33.587Z,98720.70
2018-12-24T12:45:20.321Z,98723.48
2018-12-24T12:48:07.020Z,98735.31
2018-12-24T12:50:55.144Z,98735.31
2018-12-24T12:53:35.365Z,98739.08
2018-12-24T12:56:12.270Z,98742.05
2018-12-24T12:58:46.631Z,98745.63
2018-12-24T13:01:34.688Z,98754.25
2018-12-24T13:04:21.357Z,98752.67
2018-12-24T13:07:20.382Z,98757.47
2018-12-24T13:10:20.485Z,98764.67
2018-12-24T13:13:13.286Z,98764.67
2018-12-24T13:15:59.362Z,98766.28
2018-12-24T13:18:33.285Z,98772.39
2018-12-24T13:21:05.484Z,98782.02
2018-12-24T13:23:53.480Z,98788.47
2018-12-24T13:26:35.294Z,98792.78
2018-12-24T13:29:07.438Z,98799.63
2018-12-24T13:31:52.604Z,98796.14
2018-12-24T13:34:35.679Z,98815.97
2018-12-24T13:37:10.968Z,98823.24
2018-12-24T13:39:57.644Z,98823.24
2018-12-24T13:42:38.492Z,98845.81
2018-12-24T13:45:48.267Z,98845.81
2018-12-24T13:48:58.423Z,98847.58
2018-12-24T13:51:50.417Z,98859.53
2018-12-24T13:55:01.441Z,98867.17
2018-12-24T14:04:12.633Z,98874.05
2018-12-24T14:07:19.581Z,98884.23
2018-12-24T14:10:24.508Z,98905.73
2018-12-24T14:13:03.427Z,98910.44
2018-12-24T14:15:39.119Z,98917.48
2018-12-24T14:18:16.837Z,98917.48
2018-12-24T14:21:21.597Z,98921.59
2018-12-24T14:24:04.655Z,98946.80
2018-12-24T14:26:56.488Z,98946.80
2018-12-24T14:29:58.038Z,98959.30
2018-12-24T14:32:38.429Z,98973.76
2018-12-24T14:35:13.230Z,98986.84
2018-12-24T14:37:57.434Z,98995.83
2018-12-24T14:40:38.019Z,99001.88
2018-12-24T14:43:18.938Z,99001.88
2018-12-24T14:46:07.013Z,99012.41
2018-12-24T14:48:50.316Z,99025.13
2018-12-24T14:51:30.812Z,99019.06
2018-12-24T14:54:15.515Z,99029.20
2018-12-24T14:57:17.384Z,99033.30
2018-12-24T15:00:07.018Z,99045.55
2018-12-24T15:03:08.814Z,99054.36
2018-12-24T15:05:51.315Z,99054.36
2018-12-24T15:08:41.137Z,99061.97
2018-12-24T15:12:02.936Z,99053.80
2018-12-24T15:15:26.677Z,99060.42
2018-12-24T15:18:42.294Z,99053.97
2018-12-24T15:24:39.889Z,99066.80
2018-12-24T15:27:39.917Z,99065.63
2018-12-24T15:30:45.234Z,99073.86
2018-12-24T15:33:15.406Z,99079.73
2018-12-24T15:36:03.422Z,99079.73
2018-12-24T15:39:05.789Z,99078.60
2018-12-24T15:42:12.249Z,99078.60
2018-12-24T15:45:02.802Z,99082.88
2018-12-24T15:47:48.284Z,99082.88
2018-12-24T15:50:32.664Z,99081.11
2018-12-24T15:53:25.437Z,99091.80
2018-12-24T15:56:06.045Z,99091.80
2018-12-24T15:58:57.309Z,99087.13
2018-12-24T16:01:53.016Z,99087.13
2018-12-24T16:05:01.338Z,99097.47
2018-12-24T16:07:51.304Z,99107.24
2018-12-24T16:10:41.898Z,99100.99
2018-12-24T16:13:29.300Z,99101.20
2018-12-24T16:16:06.410Z,99105.30
2018-12-24T16:18:47.961Z,99115.07
2018-12-24T16:21:29.967Z,99115.07
2018-12-24T16:24:21.976Z,99121.32
2018-12-24T16:27:17.357Z,99124.43
2018-12-24T16:30:05.796Z,99120.70
2018-12-24T16:33:05.494Z,99128.32
2018-12-24T16:35:46.062Z,99131.44
2018-12-24T16:38:45.300Z,99137.85
2018-12-24T16:41:39.581Z,99137.10
2018-12-24T16:44:20.584Z,99136.31
2018-12-24T16:47:35.752Z,99140.00
2018-12-24T16:50:11.787Z,99136.65
2018-12-24T16:53:09.626Z,99137.84
2018-12-24T16:56:02.068Z,99147.99
2018-12-24T16:58:55.259Z,99147.99
2018-12-24T17:01:54.254Z,99149.20
2018-12-24T17:04:40.870Z,99149.20
2018-12-24T17:07:22.545Z,99146.45
2018-12-24T17:10:36.323Z,99144.88
2018-12-24T17:13:23.797Z,99142.73
2018-12-24T17:16:20.311Z,99146.30
2018-12-24T17:19:31.115Z,99145.67
2018-12-24T17:21:52.213Z,99132.55
2018-12-24T17:25:16.763Z,99134.49
2018-12-24T17:28:41.620Z,99134.53
2018-12-24T17:32:47.589Z,99141.58
2018-12-24T17:35:02.110Z,99141.58
2018-12-24T17:37:39.275Z,99148.95
2018-12-24T17:40:25.978Z,99144.51
2018-12-24T17:43:21.425Z,99144.51
2018-12-24T17:46:15.699Z,99142.95
2018-12-24T17:49:32.575Z,99154.25
2018-12-24T17:52:21.487Z,99154.41
2018-12-24T17:55:11.373Z,99155.36
2018-12-24T17:58:12.810Z,99151.05
2018-12-24T18:01:15.490Z,99151.05
2018-12-24T18:04:11.370Z,99155.36
2018-12-24T18:07:03.606Z,99151.62
2018-12-24T18:10:00.847Z,99167.06
2018-12-24T18:12:52.026Z,99167.06
2018-12-24T18:15:54.979Z,99177.78
2018-12-24T18:18:43.501Z,99193.77
2018-12-24T18:21:39.384Z,99193.77
2018-12-24T18:24:22.628Z,99194.55
2018-12-24T18:27:08.030Z,99194.17
2018-12-24T18:30:13.667Z,99193.19
2018-12-24T18:33:02.580Z,99185.94
2018-12-24T18:35:48.293Z,99192.77
2018-12-24T18:38:30.149Z,99189.65
2018-12-24T18:41:12.435Z,99189.65
2018-12-24T18:44:04.163Z,99188.66
2018-12-24T18:46:45.044Z,99188.66
2018-12-24T18:49:43.719Z,99179.69
2018-12-24T18:52:38.978Z,99185.98
2018-12-24T18:55:26.542Z,99191.04
2018-12-24T18:58:10.137Z,99173.27
2018-12-24T19:00:57.358Z,99179.57
2018-12-24T19:03:26.952Z,99179.57
2018-12-24T19:06:00.926Z,99186.77
2018-12-24T19:08:33.368Z,99200.27
2018-12-24T19:11:05.677Z,99198.96
2018-12-24T19:13:37.772Z,99198.96
2018-12-24T19:16:09.947Z,99200.53
2018-12-24T19:18:42.270Z,99197.75
2018-12-24T19:21:13.023Z,99195.97
2018-12-24T19:23:52.287Z,99187.19
2018-12-24T19:26:24.453Z,99193.03
2018-12-24T19:28:58.727Z,99196.86
2018-12-24T19:31:30.667Z,99187.88
2018-12-24T19:34:02.854Z,99183.67
2018-12-24T19:36:35.110Z,99183.67
2018-12-24T19:39:09.287Z,99178.67
2018-12-24T19:41:41.286Z,99178.67
2018-12-24T19:44:13.281Z,99179.47
2018-12-24T19:46:44.012Z,99161.44
2018-12-24T19:49:16.157Z,99161.44
2018-12-24T19:51:46.856Z,99162.17
2018-12-24T19:54:18.948Z,99157.76
2018-12-24T19:56:51.251Z,99157.76
2018-12-24T19:59:23.412Z,99154.96
2018-12-24T20:01:55.345Z,99161.22
2018-12-24T20:04:27.364Z,99161.22
2018-12-24T20:06:59.405Z,99162.80
2018-12-24T20:09:31.625Z,99162.80
2018-12-24T20:12:07.124Z,99164.09
2018-12-24T20:14:37.857Z,99174.45
2018-12-24T20:17:12.100Z,99169.06
2018-12-24T20:19:44.352Z,99170.26
2018-12-24T20:22:15.094Z,99158.62
2018-12-24T20:24:47.964Z,99181.66
2018-12-24T20:27:20.136Z,99173.16
2018-12-24T20:29:50.999Z,99173.16
2018-12-24T20:32:23.295Z,99177.88
2018-12-24T20:34:54.284Z,99184.41
2018-12-24T20:37:26.751Z,99184.26
2018-12-24T20:39:59.121Z,99184.26
2018-12-24T20:42:31.282Z,99188.50
2018-12-24T20:45:03.334Z,99193.98
2018-12-24T20:47:36.381Z,99198.08
2018-12-24T20:50:08.654Z,99201.02
2018-12-24T20:52:40.864Z,99201.02
2018-12-24T20:55:13.283Z,99200.70
2018-12-24T20:57:44.367Z,99204.79
2018-12-24T21:00:16.375Z,99209.11
2018-12-24T21:02:48.754Z,99223.62
2018-12-24T21:05:21.138Z,99223.62
2018-12-24T21:07:53.288Z,99213.88
2018-12-24T21:10:24.027Z,99220.09
2018-12-24T21:12:56.432Z,99216.56
2018-12-24T21:15:28.909Z,99228.34
2018-12-24T21:18:00.946Z,99217.45
2018-12-24T21:20:33.143Z,99231.66
2018-12-24T21:23:05.288Z,99242.76
2018-12-24T21:25:35.898Z,99247.27
2018-12-24T21:28:08.357Z,99250.59
2018-12-24T21:30:39.414Z,99242.33
2018-12-24T21:33:11.645Z,99258.26
2018-12-24T21:35:43.934Z,99257.88
2018-12-24T21:38:16.281Z,99257.30
2018-12-24T21:40:47.063Z,99256.46
2018-12-24T21:43:19.283Z,99256.46
2018-12-24T21:45:49.867Z,99261.23
2018-12-24T21:48:23.961Z,99262.41
2018-12-24T21:53:24.912Z,99254.42
2018-12-24T21:55:57.221Z,99263.13
2018-12-24T21:58:28.045Z,99263.13
2018-12-24T22:02:44.669Z,99253.92
2018-12-24T22:05:16.747Z,99250.21
2018-12-24T22:07:49.271Z,99245.01
2018-12-24T22:10:19.791Z,99235.86
2018-12-24T22:12:52.250Z,99238.64
2018-12-24T22:15:23.058Z,99240.03
2018-12-24T22:17:55.205Z,99237.28
2018-12-24T22:20:26.003Z,99240.38
2018-12-24T22:22:59.939Z,99244.86
2018-12-24T22:25:34.003Z,99243.06
2018-12-24T22:28:06.277Z,99248.47
2018-12-24T22:30:36.697Z,99237.75
2018-12-24T22:33:08.877Z,99243.84
2018-12-24T22:35:41.273Z,99249.79
2018-12-24T22:38:12.269Z,99236.02
2018-12-24T22:40:42.857Z,99230.08
2018-12-24T22:43:14.945Z,99226.70
2018-12-24T22:45:47.108Z,99217.35
2018-12-24T22:48:19.271Z,99218.45
2018-12-24T22:50:51.266Z,99212.52
2018-12-24T22:53:22.044Z,99208.63
2018-12-24T22:55:54.279Z,99208.63
2018-12-24T22:58:25.061Z,99216.32
2018-12-24T23:00:57.280Z,99215.25
2018-12-24T23:03:27.850Z,99207.10
2018-12-24T23:06:00.250Z,99207.10
2018-12-24T23:08:30.963Z,99204.12
2018-12-24T23:11:03.279Z,99198.77
2018-12-24T23:13:35.291Z,99199.59
2018-12-24T23:16:07.300Z,99195.50
2018-12-24T23:18:39.265Z,99193.18
2018-12-24T23:21:09.807Z,99190.03
2018-12-24T23:23:41.943Z,99203.12
2018-12-24T23:26:14.086Z,99198.86
2018-12-24T23:28:46.357Z,99186.92
2018-12-24T23:31:18.573Z,99190.07
2018-12-24T23:33:50.774Z,99190.07
2018-12-24T23:36:22.869Z,99188.29
2018-12-24T23:38:54.936Z,99186.63
2018-12-24T23:41:26.940Z,99191.19
2018-12-24T23:43:59.104Z,99199.84
2018-12-24T23:46:31.296Z,99190.23
2018-12-24T23:49:03.291Z,99197.80
2018-12-24T23:51:33.860Z,99189.45
2018-12-24T23:54:06.098Z,99201.02
2018-12-24T23:56:38.256Z,99196.58
2018-12-24T23:59:09.005Z,99203.63
